sensor_id;sensor_type;location;lat;lon;timestamp;temperature;humidity
2190;DHT22;1101;51.056;7.262;2023-07-30T00:00:50;16.80;99.90
2190;DHT22;1101;51.056;7.262;2023-07-30T00:03:18;16.70;99.90
2190;DHT22;1101;51.056;7.262;2023-07-30T00:05:53;16.70;99.90
2190;DHT22;1101;51.056;7.262;2023-07-30T00:08:22;16.70;99.90
2190;DHT22;1101;51.056;7.262;2023-07-30T00:10:50;16.60;99.90
2190;DHT22;1101;51.056;7.262;2023-07-30T00:13:18;16.60;99.90
2190;DHT22;1101;51.056;7.262;2023-07-30T00:15:46;16.60;99.90
2190;DHT22;1101;51.056;7.262;2023-07-30T00:18:15;16.50;99.90
2190;DHT22;1101;51.056;7.262;2023-07-30T00:20:43;16.50;99.90
2190;DHT22;1101;51.056;7.262;2023-07-30T00:23:12;16.50;99.90
2190;DHT22;1101;51.056;7.262;2023-07-30T00:25:40;16.40;99.90
2190;DHT22;1101;51.056;7.262;2023-07-30T00:28:08;16.40;99.90
2190;DHT22;1101;51.056;7.262;2023-07-30T00:30:35;16.40;99.90
2190;DHT22;1101;51.056;7.262;2023-07-30T00:33:03;16.30;99.90
2190;DHT22;1101;51.056;7.262;2023-07-30T00:35:31;16.40;99.90
2190;DHT22;1101;51.056;7.262;2023-07-30T00:37:59;16.30;99.90
2190;DHT22;1101;51.056;7.262;2023-07-30T00:40:28;16.30;99.90
2190;DHT22;1101;51.056;7.262;2023-07-30T00:42:56;16.30;99.90
2190;DHT22;1101;51.056;7.262;2023-07-30T00:45:24;16.30;99.90
2190;DHT22;1101;51.056;7.262;2023-07-30T00:47:52;16.20;99.90
2190;DHT22;1101;51.056;7.262;2023-07-30T00:50:20;16.20;99.90
2190;DHT22;1101;51.056;7.262;2023-07-30T00:52:48;16.20;99.90
2190;DHT22;1101;51.056;7.262;2023-07-30T00:55:16;16.20;99.90
2190;DHT22;1101;51.056;7.262;2023-07-30T00:57:46;16.10;99.90
2190;DHT22;1101;51.056;7.262;2023-07-30T01:00:14;16.10;99.90
2190;DHT22;1101;51.056;7.262;2023-07-30T01:02:42;16.10;99.90
2190;DHT22;1101;51.056;7.262;2023-07-30T01:05:10;16.10;99.90
2190;DHT22;1101;51.056;7.262;2023-07-30T01:07:38;16.10;99.90
2190;DHT22;1101;51.056;7.262;2023-07-30T01:10:07;16.00;99.90
2190;DHT22;1101;51.056;7.262;2023-07-30T01:12:35;16.00;99.90
2190;DHT22;1101;51.056;7.262;2023-07-30T01:15:06;16.00;99.90
2190;DHT22;1101;51.056;7.262;2023-07-30T01:17:34;16.10;99.90
2190;DHT22;1101;51.056;7.262;2023-07-30T01:20:03;16.00;99.90
2190;DHT22;1101;51.056;7.262;2023-07-30T01:22:33;16.00;99.90
2190;DHT22;1101;51.056;7.262;2023-07-30T01:25:00;16.10;99.90
2190;DHT22;1101;51.056;7.262;2023-07-30T01:27:31;16.10;99.90
2190;DHT22;1101;51.056;7.262;2023-07-30T01:30:05;16.10;99.90
2190;DHT22;1101;51.056;7.262;2023-07-30T01:32:34;16.10;99.90
2190;DHT22;1101;51.056;7.262;2023-07-30T01:35:04;16.10;99.90
2190;DHT22;1101;51.056;7.262;2023-07-30T01:37:34;16.10;99.90
2190;DHT22;1101;51.056;7.262;2023-07-30T01:40:03;16.10;99.90
2190;DHT22;1101;51.056;7.262;2023-07-30T01:42:32;16.10;99.90
2190;DHT22;1101;51.056;7.262;2023-07-30T01:45:00;16.10;99.90
2190;DHT22;1101;51.056;7.262;2023-07-30T01:47:27;16.10;99.90
2190;DHT22;1101;51.056;7.262;2023-07-30T01:49:55;16.20;99.90
2190;DHT22;1101;51.056;7.262;2023-07-30T01:52:23;16.20;99.90
2190;DHT22;1101;51.056;7.262;2023-07-30T01:54:53;16.20;99.90
2190;DHT22;1101;51.056;7.262;2023-07-30T01:57:22;16.20;99.90
2190;DHT22;1101;51.056;7.262;2023-07-30T01:59:50;16.20;99.90
2190;DHT22;1101;51.056;7.262;2023-07-30T02:02:18;16.20;99.90
2190;DHT22;1101;51.056;7.262;2023-07-30T02:04:46;16.20;99.90
2190;DHT22;1101;51.056;7.262;2023-07-30T02:07:14;16.20;99.90
2190;DHT22;1101;51.056;7.262;2023-07-30T02:09:42;16.20;99.90
2190;DHT22;1101;51.056;7.262;2023-07-30T02:12:12;16.20;99.90
2190;DHT22;1101;51.056;7.262;2023-07-30T02:14:39;16.20;99.90
2190;DHT22;1101;51.056;7.262;2023-07-30T02:17:07;16.20;99.90
2190;DHT22;1101;51.056;7.262;2023-07-30T02:19:35;16.20;99.90
2190;DHT22;1101;51.056;7.262;2023-07-30T02:22:03;16.20;99.90
2190;DHT22;1101;51.056;7.262;2023-07-30T02:24:31;16.20;99.90
2190;DHT22;1101;51.056;7.262;2023-07-30T02:26:59;16.20;99.90
2190;DHT22;1101;51.056;7.262;2023-07-30T02:29:29;16.20;99.90
2190;DHT22;1101;51.056;7.262;2023-07-30T02:31:57;16.20;99.90
2190;DHT22;1101;51.056;7.262;2023-07-30T02:34:26;16.30;99.90
2190;DHT22;1101;51.056;7.262;2023-07-30T02:36:54;16.30;99.90
2190;DHT22;1101;51.056;7.262;2023-07-30T02:39:22;16.30;99.90
2190;DHT22;1101;51.056;7.262;2023-07-30T02:41:50;16.20;99.90
2190;DHT22;1101;51.056;7.262;2023-07-30T02:44:18;16.30;99.90
2190;DHT22;1101;51.056;7.262;2023-07-30T02:46:47;16.30;99.90
2190;DHT22;1101;51.056;7.262;2023-07-30T02:49:14;16.30;99.90
2190;DHT22;1101;51.056;7.262;2023-07-30T02:51:42;16.30;99.90
2190;DHT22;1101;51.056;7.262;2023-07-30T02:54:15;16.30;99.90
2190;DHT22;1101;51.056;7.262;2023-07-30T02:56:43;16.30;99.90
2190;DHT22;1101;51.056;7.262;2023-07-30T02:59:12;16.30;99.90
2190;DHT22;1101;51.056;7.262;2023-07-30T03:01:39;16.30;99.90
2190;DHT22;1101;51.056;7.262;2023-07-30T03:04:09;16.30;99.90
2190;DHT22;1101;51.056;7.262;2023-07-30T03:06:37;16.30;99.90
2190;DHT22;1101;51.056;7.262;2023-07-30T03:09:05;16.30;99.90
2190;DHT22;1101;51.056;7.262;2023-07-30T03:11:34;16.30;99.90
2190;DHT22;1101;51.056;7.262;2023-07-30T03:14:02;16.30;99.90
2190;DHT22;1101;51.056;7.262;2023-07-30T03:16:30;16.30;99.90
2190;DHT22;1101;51.056;7.262;2023-07-30T03:18:58;16.30;99.90
2190;DHT22;1101;51.056;7.262;2023-07-30T03:21:27;16.30;99.90
2190;DHT22;1101;51.056;7.262;2023-07-30T03:23:54;16.30;99.90
2190;DHT22;1101;51.056;7.262;2023-07-30T03:26:22;16.30;99.90
2190;DHT22;1101;51.056;7.262;2023-07-30T03:28:50;16.30;99.90
2190;DHT22;1101;51.056;7.262;2023-07-30T03:31:18;16.30;99.90
2190;DHT22;1101;51.056;7.262;2023-07-30T03:33:46;16.30;99.90
2190;DHT22;1101;51.056;7.262;2023-07-30T03:36:14;16.30;99.90
2190;DHT22;1101;51.056;7.262;2023-07-30T03:38:43;16.30;99.90
2190;DHT22;1101;51.056;7.262;2023-07-30T03:41:11;16.30;99.90
2190;DHT22;1101;51.056;7.262;2023-07-30T03:43:39;16.30;99.90
2190;DHT22;1101;51.056;7.262;2023-07-30T03:46:07;16.30;99.90
2190;DHT22;1101;51.056;7.262;2023-07-30T03:48:34;16.30;99.90
2190;DHT22;1101;51.056;7.262;2023-07-30T03:51:02;16.30;99.90
2190;DHT22;1101;51.056;7.262;2023-07-30T03:53:30;16.20;99.90
2190;DHT22;1101;51.056;7.262;2023-07-30T03:55:59;16.20;99.90
2190;DHT22;1101;51.056;7.262;2023-07-30T03:58:27;16.20;99.90
2190;DHT22;1101;51.056;7.262;2023-07-30T04:00:57;16.20;99.90
2190;DHT22;1101;51.056;7.262;2023-07-30T04:03:25;16.20;99.90
2190;DHT22;1101;51.056;7.262;2023-07-30T04:05:52;16.20;99.90
2190;DHT22;1101;51.056;7.262;2023-07-30T04:08:20;16.10;99.90
2190;DHT22;1101;51.056;7.262;2023-07-30T04:10:48;16.20;99.90
2190;DHT22;1101;51.056;7.262;2023-07-30T04:13:17;16.20;99.90
2190;DHT22;1101;51.056;7.262;2023-07-30T04:15:47;16.20;99.90
2190;DHT22;1101;51.056;7.262;2023-07-30T04:18:15;16.10;99.90
2190;DHT22;1101;51.056;7.262;2023-07-30T04:20:43;16.20;99.90
2190;DHT22;1101;51.056;7.262;2023-07-30T04:23:11;16.10;99.90
2190;DHT22;1101;51.056;7.262;2023-07-30T04:25:38;16.20;99.90
2190;DHT22;1101;51.056;7.262;2023-07-30T04:28:06;16.20;99.90
2190;DHT22;1101;51.056;7.262;2023-07-30T04:30:35;16.20;99.90
2190;DHT22;1101;51.056;7.262;2023-07-30T04:33:03;16.20;99.90
2190;DHT22;1101;51.056;7.262;2023-07-30T04:35:31;16.20;99.90
2190;DHT22;1101;51.056;7.262;2023-07-30T04:37:59;16.10;99.90
2190;DHT22;1101;51.056;7.262;2023-07-30T04:40:27;16.10;99.90
2190;DHT22;1101;51.056;7.262;2023-07-30T04:42:54;16.10;99.90
2190;DHT22;1101;51.056;7.262;2023-07-30T04:45:22;16.10;99.90
2190;DHT22;1101;51.056;7.262;2023-07-30T04:47:51;16.00;99.90
2190;DHT22;1101;51.056;7.262;2023-07-30T04:50:19;16.00;99.90
2190;DHT22;1101;51.056;7.262;2023-07-30T04:52:47;15.90;99.90
2190;DHT22;1101;51.056;7.262;2023-07-30T04:55:15;15.90;99.90
2190;DHT22;1101;51.056;7.262;2023-07-30T04:57:43;15.90;99.90
2190;DHT22;1101;51.056;7.262;2023-07-30T05:00:11;15.90;99.90
2190;DHT22;1101;51.056;7.262;2023-07-30T05:02:39;15.90;99.90
2190;DHT22;1101;51.056;7.262;2023-07-30T05:05:09;15.80;99.90
2190;DHT22;1101;51.056;7.262;2023-07-30T05:07:37;15.90;99.90
2190;DHT22;1101;51.056;7.262;2023-07-30T05:10:06;15.90;99.90
2190;DHT22;1101;51.056;7.262;2023-07-30T05:12:36;15.80;99.90
2190;DHT22;1101;51.056;7.262;2023-07-30T05:15:05;15.90;99.90
2190;DHT22;1101;51.056;7.262;2023-07-30T05:17:33;15.90;99.90
2190;DHT22;1101;51.056;7.262;2023-07-30T05:20:01;15.90;99.90
2190;DHT22;1101;51.056;7.262;2023-07-30T05:22:30;15.90;99.90
2190;DHT22;1101;51.056;7.262;2023-07-30T05:24:58;15.90;99.90
2190;DHT22;1101;51.056;7.262;2023-07-30T05:27:27;15.90;99.90
2190;DHT22;1101;51.056;7.262;2023-07-30T05:29:55;15.90;99.90
2190;DHT22;1101;51.056;7.262;2023-07-30T05:32:23;16.00;99.90
2190;DHT22;1101;51.056;7.262;2023-07-30T05:34:51;16.00;99.90
2190;DHT22;1101;51.056;7.262;2023-07-30T05:37:19;16.00;99.90
2190;DHT22;1101;51.056;7.262;2023-07-30T05:39:48;16.00;99.90
2190;DHT22;1101;51.056;7.262;2023-07-30T05:42:16;16.00;99.90
2190;DHT22;1101;51.056;7.262;2023-07-30T05:44:43;16.00;99.90
2190;DHT22;1101;51.056;7.262;2023-07-30T05:47:11;16.00;99.90
2190;DHT22;1101;51.056;7.262;2023-07-30T05:49:39;16.00;99.90
2190;DHT22;1101;51.056;7.262;2023-07-30T05:52:07;15.90;99.90
2190;DHT22;1101;51.056;7.262;2023-07-30T05:54:35;15.90;99.90
2190;DHT22;1101;51.056;7.262;2023-07-30T05:57:04;16.00;99.90
2190;DHT22;1101;51.056;7.262;2023-07-30T05:59:32;16.00;99.90
2190;DHT22;1101;51.056;7.262;2023-07-30T06:02:02;16.00;99.90
2190;DHT22;1101;51.056;7.262;2023-07-30T06:04:30;16.00;99.90
2190;DHT22;1101;51.056;7.262;2023-07-30T06:06:59;16.00;99.90
2190;DHT22;1101;51.056;7.262;2023-07-30T06:09:27;16.00;99.90
2190;DHT22;1101;51.056;7.262;2023-07-30T06:11:56;16.00;99.90
2190;DHT22;1101;51.056;7.262;2023-07-30T06:14:25;16.00;99.90
2190;DHT22;1101;51.056;7.262;2023-07-30T06:16:53;16.00;99.90
2190;DHT22;1101;51.056;7.262;2023-07-30T06:19:21;16.00;99.90
2190;DHT22;1101;51.056;7.262;2023-07-30T06:21:49;15.90;99.90
2190;DHT22;1101;51.056;7.262;2023-07-30T06:24:17;16.00;99.90
2190;DHT22;1101;51.056;7.262;2023-07-30T06:26:45;16.00;99.90
2190;DHT22;1101;51.056;7.262;2023-07-30T06:29:13;16.00;99.90
2190;DHT22;1101;51.056;7.262;2023-07-30T06:31:42;16.00;99.90
2190;DHT22;1101;51.056;7.262;2023-07-30T06:34:10;16.00;99.90
2190;DHT22;1101;51.056;7.262;2023-07-30T06:36:38;16.00;99.90
2190;DHT22;1101;51.056;7.262;2023-07-30T06:39:05;16.00;99.90
2190;DHT22;1101;51.056;7.262;2023-07-30T06:41:33;16.00;99.90
2190;DHT22;1101;51.056;7.262;2023-07-30T06:44:02;16.00;99.90
2190;DHT22;1101;51.056;7.262;2023-07-30T06:46:30;16.00;99.90
2190;DHT22;1101;51.056;7.262;2023-07-30T06:48:59;16.00;99.90
2190;DHT22;1101;51.056;7.262;2023-07-30T06:51:27;16.00;99.90
2190;DHT22;1101;51.056;7.262;2023-07-30T06:53:56;16.00;99.90
2190;DHT22;1101;51.056;7.262;2023-07-30T06:56:24;16.00;99.90
2190;DHT22;1101;51.056;7.262;2023-07-30T06:58:52;16.00;99.90
2190;DHT22;1101;51.056;7.262;2023-07-30T07:01:19;16.00;99.90
2190;DHT22;1101;51.056;7.262;2023-07-30T07:03:47;16.00;99.90
2190;DHT22;1101;51.056;7.262;2023-07-30T07:06:16;16.00;99.90
2190;DHT22;1101;51.056;7.262;2023-07-30T07:08:44;16.00;99.90
2190;DHT22;1101;51.056;7.262;2023-07-30T07:11:12;16.00;99.90
2190;DHT22;1101;51.056;7.262;2023-07-30T07:13:40;16.00;99.90
2190;DHT22;1101;51.056;7.262;2023-07-30T07:16:08;16.00;99.90
2190;DHT22;1101;51.056;7.262;2023-07-30T07:18:35;16.00;99.90
2190;DHT22;1101;51.056;7.262;2023-07-30T07:21:03;16.00;99.90
2190;DHT22;1101;51.056;7.262;2023-07-30T07:23:32;16.00;99.90
2190;DHT22;1101;51.056;7.262;2023-07-30T07:26:00;16.00;99.90
2190;DHT22;1101;51.056;7.262;2023-07-30T07:28:28;16.00;99.90
2190;DHT22;1101;51.056;7.262;2023-07-30T07:30:56;15.90;99.90
2190;DHT22;1101;51.056;7.262;2023-07-30T07:33:24;16.00;99.90
2190;DHT22;1101;51.056;7.262;2023-07-30T07:35:51;16.00;99.90
2190;DHT22;1101;51.056;7.262;2023-07-30T07:38:29;16.00;99.90
2190;DHT22;1101;51.056;7.262;2023-07-30T07:40:58;16.00;99.90
2190;DHT22;1101;51.056;7.262;2023-07-30T07:43:26;16.00;99.90
2190;DHT22;1101;51.056;7.262;2023-07-30T07:45:54;16.10;99.90
2190;DHT22;1101;51.056;7.262;2023-07-30T07:48:22;16.10;99.90
2190;DHT22;1101;51.056;7.262;2023-07-30T07:50:50;16.10;99.90
2190;DHT22;1101;51.056;7.262;2023-07-30T07:53:18;16.20;99.90
2190;DHT22;1101;51.056;7.262;2023-07-30T07:55:46;16.20;99.90
2190;DHT22;1101;51.056;7.262;2023-07-30T07:58:15;16.30;99.90
2190;DHT22;1101;51.056;7.262;2023-07-30T08:00:42;16.30;99.90
2190;DHT22;1101;51.056;7.262;2023-07-30T08:03:10;16.40;99.90
2190;DHT22;1101;51.056;7.262;2023-07-30T08:05:38;16.50;99.90
2190;DHT22;1101;51.056;7.262;2023-07-30T08:08:07;16.50;99.90
2190;DHT22;1101;51.056;7.262;2023-07-30T08:10:38;16.50;99.90
2190;DHT22;1101;51.056;7.262;2023-07-30T08:13:07;16.60;99.90
2190;DHT22;1101;51.056;7.262;2023-07-30T08:15:36;16.60;99.90
2190;DHT22;1101;51.056;7.262;2023-07-30T08:18:04;16.60;99.90
2190;DHT22;1101;51.056;7.262;2023-07-30T08:20:32;16.60;99.90
2190;DHT22;1101;51.056;7.262;2023-07-30T08:23:00;16.70;99.90
2190;DHT22;1101;51.056;7.262;2023-07-30T08:25:28;16.80;99.90
2190;DHT22;1101;51.056;7.262;2023-07-30T08:27:55;16.80;99.90
2190;DHT22;1101;51.056;7.262;2023-07-30T08:30:23;16.80;99.90
2190;DHT22;1101;51.056;7.262;2023-07-30T08:32:52;16.90;99.90
2190;DHT22;1101;51.056;7.262;2023-07-30T08:35:21;16.90;99.90
2190;DHT22;1101;51.056;7.262;2023-07-30T08:37:48;17.00;99.90
2190;DHT22;1101;51.056;7.262;2023-07-30T08:40:16;17.00;99.90
2190;DHT22;1101;51.056;7.262;2023-07-30T08:42:44;17.00;99.90
2190;DHT22;1101;51.056;7.262;2023-07-30T08:45:12;17.00;99.90
2190;DHT22;1101;51.056;7.262;2023-07-30T08:47:40;17.10;99.90
2190;DHT22;1101;51.056;7.262;2023-07-30T08:50:09;17.20;99.90
2190;DHT22;1101;51.056;7.262;2023-07-30T08:52:38;17.20;99.90
2190;DHT22;1101;51.056;7.262;2023-07-30T08:55:07;17.30;99.90
2190;DHT22;1101;51.056;7.262;2023-07-30T08:57:35;17.30;99.90
2190;DHT22;1101;51.056;7.262;2023-07-30T09:00:05;17.30;99.90
2190;DHT22;1101;51.056;7.262;2023-07-30T09:02:38;17.30;99.90
2190;DHT22;1101;51.056;7.262;2023-07-30T09:05:08;17.40;99.90
2190;DHT22;1101;51.056;7.262;2023-07-30T09:07:36;17.50;99.90
2190;DHT22;1101;51.056;7.262;2023-07-30T09:10:05;17.50;99.90
2190;DHT22;1101;51.056;7.262;2023-07-30T09:12:34;17.50;99.90
2190;DHT22;1101;51.056;7.262;2023-07-30T09:15:03;17.50;99.90
2190;DHT22;1101;51.056;7.262;2023-07-30T09:17:31;17.50;99.90
2190;DHT22;1101;51.056;7.262;2023-07-30T09:19:59;17.40;99.90
2190;DHT22;1101;51.056;7.262;2023-07-30T09:22:31;17.40;99.90
2190;DHT22;1101;51.056;7.262;2023-07-30T09:25:03;17.50;99.90
2190;DHT22;1101;51.056;7.262;2023-07-30T09:27:31;17.50;99.90
2190;DHT22;1101;51.056;7.262;2023-07-30T09:30:01;17.60;99.90
2190;DHT22;1101;51.056;7.262;2023-07-30T09:32:32;17.70;99.90
2190;DHT22;1101;51.056;7.262;2023-07-30T09:35:07;17.80;99.90
2190;DHT22;1101;51.056;7.262;2023-07-30T09:37:41;17.90;99.90
2190;DHT22;1101;51.056;7.262;2023-07-30T09:40:10;18.10;99.90
2190;DHT22;1101;51.056;7.262;2023-07-30T09:42:42;18.30;99.90
2190;DHT22;1101;51.056;7.262;2023-07-30T09:45:17;18.40;99.90
2190;DHT22;1101;51.056;7.262;2023-07-30T09:47:48;18.30;99.90
2190;DHT22;1101;51.056;7.262;2023-07-30T09:50:16;18.50;99.90
2190;DHT22;1101;51.056;7.262;2023-07-30T09:52:45;18.50;99.90
2190;DHT22;1101;51.056;7.262;2023-07-30T09:55:14;18.60;99.90
2190;DHT22;1101;51.056;7.262;2023-07-30T09:57:43;18.70;99.90
2190;DHT22;1101;51.056;7.262;2023-07-30T10:00:11;18.80;99.90
2190;DHT22;1101;51.056;7.262;2023-07-30T10:02:43;19.10;99.90
2190;DHT22;1101;51.056;7.262;2023-07-30T10:05:15;19.30;99.90
2190;DHT22;1101;51.056;7.262;2023-07-30T10:07:49;19.50;99.90
2190;DHT22;1101;51.056;7.262;2023-07-30T10:10:18;19.60;99.90
2190;DHT22;1101;51.056;7.262;2023-07-30T10:12:47;19.50;99.90
2190;DHT22;1101;51.056;7.262;2023-07-30T10:15:18;19.40;99.90
2190;DHT22;1101;51.056;7.262;2023-07-30T10:17:46;19.30;99.90
2190;DHT22;1101;51.056;7.262;2023-07-30T10:20:22;19.30;99.90
2190;DHT22;1101;51.056;7.262;2023-07-30T10:22:53;19.30;99.90
2190;DHT22;1101;51.056;7.262;2023-07-30T10:25:22;19.30;99.90
2190;DHT22;1101;51.056;7.262;2023-07-30T10:27:51;19.30;99.80
2190;DHT22;1101;51.056;7.262;2023-07-30T10:30:20;19.20;99.50
2190;DHT22;1101;51.056;7.262;2023-07-30T10:32:59;19.10;99.40
2190;DHT22;1101;51.056;7.262;2023-07-30T10:35:41;19.10;99.20
2190;DHT22;1101;51.056;7.262;2023-07-30T10:38:15;19.10;99.80
2190;DHT22;1101;51.056;7.262;2023-07-30T10:41:02;19.30;99.90
2190;DHT22;1101;51.056;7.262;2023-07-30T10:43:31;19.40;99.80
2190;DHT22;1101;51.056;7.262;2023-07-30T10:46:01;19.60;99.80
2190;DHT22;1101;51.056;7.262;2023-07-30T10:48:31;19.80;99.30
2190;DHT22;1101;51.056;7.262;2023-07-30T10:51:02;19.90;98.90
2190;DHT22;1101;51.056;7.262;2023-07-30T10:53:32;19.80;98.80
2190;DHT22;1101;51.056;7.262;2023-07-30T10:56:03;19.80;98.70
2190;DHT22;1101;51.056;7.262;2023-07-30T10:58:32;19.80;98.60
2190;DHT22;1101;51.056;7.262;2023-07-30T11:01:02;19.90;99.00
2190;DHT22;1101;51.056;7.262;2023-07-30T11:03:30;20.10;98.90
2190;DHT22;1101;51.056;7.262;2023-07-30T11:05:59;20.20;98.80
2190;DHT22;1101;51.056;7.262;2023-07-30T11:08:36;20.20;98.50
2190;DHT22;1101;51.056;7.262;2023-07-30T11:11:04;20.20;98.40
2190;DHT22;1101;51.056;7.262;2023-07-30T11:13:36;20.10;98.00
2190;DHT22;1101;51.056;7.262;2023-07-30T11:16:05;20.00;97.90
2190;DHT22;1101;51.056;7.262;2023-07-30T11:18:34;20.00;97.70
2190;DHT22;1101;51.056;7.262;2023-07-30T11:21:03;19.90;97.70
2190;DHT22;1101;51.056;7.262;2023-07-30T11:23:31;19.80;97.80
2190;DHT22;1101;51.056;7.262;2023-07-30T11:26:02;19.80;97.50
2190;DHT22;1101;51.056;7.262;2023-07-30T11:28:31;19.90;98.20
2190;DHT22;1101;51.056;7.262;2023-07-30T11:31:04;20.00;98.20
2190;DHT22;1101;51.056;7.262;2023-07-30T11:33:34;20.20;98.10
2190;DHT22;1101;51.056;7.262;2023-07-30T11:36:03;20.30;97.90
2190;DHT22;1101;51.056;7.262;2023-07-30T11:38:32;20.30;97.70
2190;DHT22;1101;51.056;7.262;2023-07-30T11:41:01;20.30;97.70
2190;DHT22;1101;51.056;7.262;2023-07-30T11:43:30;20.30;97.50
2190;DHT22;1101;51.056;7.262;2023-07-30T11:46:08;20.20;96.90
2190;DHT22;1101;51.056;7.262;2023-07-30T11:48:37;20.10;97.00
2190;DHT22;1101;51.056;7.262;2023-07-30T11:51:05;20.10;97.10
2190;DHT22;1101;51.056;7.262;2023-07-30T11:53:47;20.10;97.00
2190;DHT22;1101;51.056;7.262;2023-07-30T11:56:22;20.10;97.40
2190;DHT22;1101;51.056;7.262;2023-07-30T11:58:53;20.20;97.40
2190;DHT22;1101;51.056;7.262;2023-07-30T12:01:23;20.10;97.40
2190;DHT22;1101;51.056;7.262;2023-07-30T12:03:54;20.20;97.40
2190;DHT22;1101;51.056;7.262;2023-07-30T12:06:22;20.20;97.20
2190;DHT22;1101;51.056;7.262;2023-07-30T12:08:50;20.20;96.70
2190;DHT22;1101;51.056;7.262;2023-07-30T12:11:20;20.10;96.50
2190;DHT22;1101;51.056;7.262;2023-07-30T12:13:48;20.00;96.20
2190;DHT22;1101;51.056;7.262;2023-07-30T12:16:17;19.90;96.70
2190;DHT22;1101;51.056;7.262;2023-07-30T12:18:47;19.90;96.60
2190;DHT22;1101;51.056;7.262;2023-07-30T12:21:15;19.90;96.60
2190;DHT22;1101;51.056;7.262;2023-07-30T12:23:43;19.90;96.70
2190;DHT22;1101;51.056;7.262;2023-07-30T12:26:11;19.90;96.80
2190;DHT22;1101;51.056;7.262;2023-07-30T12:28:40;19.90;96.60
2190;DHT22;1101;51.056;7.262;2023-07-30T12:31:08;19.90;96.30
2190;DHT22;1101;51.056;7.262;2023-07-30T12:33:36;19.90;96.10
2190;DHT22;1101;51.056;7.262;2023-07-30T12:36:04;19.80;96.30
2190;DHT22;1101;51.056;7.262;2023-07-30T12:38:32;19.80;96.40
2190;DHT22;1101;51.056;7.262;2023-07-30T12:41:01;19.80;96.40
2190;DHT22;1101;51.056;7.262;2023-07-30T12:43:29;19.80;96.10
2190;DHT22;1101;51.056;7.262;2023-07-30T12:45:58;19.70;96.10
2190;DHT22;1101;51.056;7.262;2023-07-30T12:48:25;19.50;96.40
2190;DHT22;1101;51.056;7.262;2023-07-30T12:50:53;19.40;96.50
2190;DHT22;1101;51.056;7.262;2023-07-30T12:53:23;19.30;96.40
2190;DHT22;1101;51.056;7.262;2023-07-30T12:55:52;19.10;96.40
2190;DHT22;1101;51.056;7.262;2023-07-30T12:58:20;19.00;96.70
2190;DHT22;1101;51.056;7.262;2023-07-30T13:00:47;18.90;96.60
2190;DHT22;1101;51.056;7.262;2023-07-30T13:03:17;18.90;96.80
2190;DHT22;1101;51.056;7.262;2023-07-30T13:05:45;18.90;96.50
2190;DHT22;1101;51.056;7.262;2023-07-30T13:08:12;19.00;96.30
2190;DHT22;1101;51.056;7.262;2023-07-30T13:10:40;19.10;96.30
2190;DHT22;1101;51.056;7.262;2023-07-30T13:13:08;19.20;96.50
2190;DHT22;1101;51.056;7.262;2023-07-30T13:15:36;19.40;96.70
2190;DHT22;1101;51.056;7.262;2023-07-30T13:18:03;19.60;96.70
2190;DHT22;1101;51.056;7.262;2023-07-30T13:20:33;19.70;96.70
2190;DHT22;1101;51.056;7.262;2023-07-30T13:23:00;19.90;96.40
2190;DHT22;1101;51.056;7.262;2023-07-30T13:25:29;19.90;95.60
2190;DHT22;1101;51.056;7.262;2023-07-30T13:27:56;19.90;95.90
2190;DHT22;1101;51.056;7.262;2023-07-30T13:30:24;20.00;96.20
2190;DHT22;1101;51.056;7.262;2023-07-30T13:32:53;20.10;95.90
2190;DHT22;1101;51.056;7.262;2023-07-30T13:35:21;20.10;96.00
2190;DHT22;1101;51.056;7.262;2023-07-30T13:37:51;20.10;95.80
2190;DHT22;1101;51.056;7.262;2023-07-30T13:40:19;20.20;96.00
2190;DHT22;1101;51.056;7.262;2023-07-30T13:42:47;20.20;96.10
2190;DHT22;1101;51.056;7.262;2023-07-30T13:45:14;20.30;96.20
2190;DHT22;1101;51.056;7.262;2023-07-30T13:47:42;20.40;96.20
2190;DHT22;1101;51.056;7.262;2023-07-30T13:50:10;20.40;95.90
2190;DHT22;1101;51.056;7.262;2023-07-30T13:52:38;20.40;95.90
2190;DHT22;1101;51.056;7.262;2023-07-30T13:55:07;20.40;96.00
2190;DHT22;1101;51.056;7.262;2023-07-30T13:57:35;20.40;96.00
2190;DHT22;1101;51.056;7.262;2023-07-30T14:00:04;20.50;96.20
2190;DHT22;1101;51.056;7.262;2023-07-30T14:02:32;20.70;96.30
2190;DHT22;1101;51.056;7.262;2023-07-30T14:05:00;21.00;96.10
2190;DHT22;1101;51.056;7.262;2023-07-30T14:07:29;21.10;96.00
2190;DHT22;1101;51.056;7.262;2023-07-30T14:09:57;21.30;95.90
2190;DHT22;1101;51.056;7.262;2023-07-30T14:12:26;21.50;95.50
2190;DHT22;1101;51.056;7.262;2023-07-30T14:14:54;21.50;95.30
2190;DHT22;1101;51.056;7.262;2023-07-30T14:17:22;21.60;95.20
2190;DHT22;1101;51.056;7.262;2023-07-30T14:19:49;21.60;95.30
2190;DHT22;1101;51.056;7.262;2023-07-30T14:22:17;21.70;95.10
2190;DHT22;1101;51.056;7.262;2023-07-30T14:24:45;21.80;95.20
2190;DHT22;1101;51.056;7.262;2023-07-30T14:27:13;21.90;94.80
2190;DHT22;1101;51.056;7.262;2023-07-30T14:29:42;22.00;94.90
2190;DHT22;1101;51.056;7.262;2023-07-30T14:32:10;22.00;94.70
2190;DHT22;1101;51.056;7.262;2023-07-30T14:34:38;22.00;94.40
2190;DHT22;1101;51.056;7.262;2023-07-30T14:37:06;21.90;94.40
2190;DHT22;1101;51.056;7.262;2023-07-30T14:39:36;21.90;94.30
2190;DHT22;1101;51.056;7.262;2023-07-30T14:42:04;21.80;94.40
2190;DHT22;1101;51.056;7.262;2023-07-30T14:44:32;21.80;94.40
2190;DHT22;1101;51.056;7.262;2023-07-30T14:47:01;21.80;94.30
2190;DHT22;1101;51.056;7.262;2023-07-30T14:49:31;21.90;94.70
2190;DHT22;1101;51.056;7.262;2023-07-30T14:51:59;22.10;94.80
2190;DHT22;1101;51.056;7.262;2023-07-30T14:54:27;22.20;94.70
2190;DHT22;1101;51.056;7.262;2023-07-30T14:56:54;22.30;94.30
2190;DHT22;1101;51.056;7.262;2023-07-30T14:59:22;22.30;94.30
2190;DHT22;1101;51.056;7.262;2023-07-30T15:01:51;22.40;94.50
2190;DHT22;1101;51.056;7.262;2023-07-30T15:04:21;22.60;94.50
2190;DHT22;1101;51.056;7.262;2023-07-30T15:06:49;22.90;94.60
2190;DHT22;1101;51.056;7.262;2023-07-30T15:09:16;23.10;94.00
2190;DHT22;1101;51.056;7.262;2023-07-30T15:11:44;23.20;93.70
2190;DHT22;1101;51.056;7.262;2023-07-30T15:14:12;23.10;93.30
2190;DHT22;1101;51.056;7.262;2023-07-30T15:16:40;23.10;92.80
2190;DHT22;1101;51.056;7.262;2023-07-30T15:19:08;23.10;93.30
2190;DHT22;1101;51.056;7.262;2023-07-30T15:21:37;23.10;93.20
2190;DHT22;1101;51.056;7.262;2023-07-30T15:24:05;23.10;93.00
2190;DHT22;1101;51.056;7.262;2023-07-30T15:26:33;23.20;93.10
2190;DHT22;1101;51.056;7.262;2023-07-30T15:29:01;23.20;92.80
2190;DHT22;1101;51.056;7.262;2023-07-30T15:31:29;23.20;92.60
2190;DHT22;1101;51.056;7.262;2023-07-30T15:33:57;23.20;91.60
2190;DHT22;1101;51.056;7.262;2023-07-30T15:36:29;23.10;92.20
2190;DHT22;1101;51.056;7.262;2023-07-30T15:38:59;23.10;92.30
2190;DHT22;1101;51.056;7.262;2023-07-30T15:41:26;23.00;92.10
2190;DHT22;1101;51.056;7.262;2023-07-30T15:43:54;23.10;92.40
2190;DHT22;1101;51.056;7.262;2023-07-30T15:46:22;23.20;92.20
2190;DHT22;1101;51.056;7.262;2023-07-30T15:48:50;23.20;92.50
2190;DHT22;1101;51.056;7.262;2023-07-30T15:51:18;23.50;92.30
2190;DHT22;1101;51.056;7.262;2023-07-30T15:53:46;23.70;92.30
2190;DHT22;1101;51.056;7.262;2023-07-30T15:56:15;23.80;91.60
2190;DHT22;1101;51.056;7.262;2023-07-30T15:58:43;23.80;91.60
2190;DHT22;1101;51.056;7.262;2023-07-30T16:01:11;23.90;91.60
2190;DHT22;1101;51.056;7.262;2023-07-30T16:03:39;23.90;91.50
2190;DHT22;1101;51.056;7.262;2023-07-30T16:06:07;23.80;90.90
2190;DHT22;1101;51.056;7.262;2023-07-30T16:08:36;23.70;91.10
2190;DHT22;1101;51.056;7.262;2023-07-30T16:11:05;23.80;91.50